sensor_id;sensor_type;location;lat;lon;timestamp;pressure;altitude;pressure_sealevel;temperature;humidity
44079;BME280;29744;49.078;12.878;2023-11-18T00:04:47;97032.66;;;15.95;39.65
44079;BME280;29744;49.078;12.878;2023-11-18T00:09:47;97043.31;;;15.91;39.57
44079;BME280;29744;49.078;12.878;2023-11-18T00:14:48;97052.84;;;15.89;39.63
44079;BME280;29744;49.078;12.878;2023-11-18T00:19:48;97067.81;;;15.86;39.44
44079;BME280;29744;49.078;12.878;2023-11-18T00:24:49;97061.13;;;15.84;39.48
44079;BME280;29744;49.078;12.878;2023-11-18T00:29:49;97065.72;;;15.83;39.55
44079;BME280;29744;49.078;12.878;2023-11-18T00:34:49;97072.25;;;15.82;39.91
44079;BME280;29744;49.078;12.878;2023-11-18T00:39:50;97069.88;;;15.81;39.63
44079;BME280;29744;49.078;12.878;2023-11-18T00:44:50;97069.06;;;15.80;39.64
44079;BME280;29744;49.078;12.878;2023-11-18T00:49:51;97063.66;;;15.80;39.84
44079;BME280;29744;49.078;12.878;2023-11-18T00:54:53;97060.44;;;15.78;39.37
44079;BME280;29744;49.078;12.878;2023-11-18T00:59:53;97055.66;;;15.75;39.93
44079;BME280;29744;49.078;12.878;2023-11-18T01:04:53;97058.69;;;15.73;39.45
44079;BME280;29744;49.078;12.878;2023-11-18T01:09:53;97060.91;;;15.71;39.77
44079;BME280;29744;49.078;12.878;2023-11-18T01:14:54;97056.13;;;15.68;39.63
44079;BME280;29744;49.078;12.878;2023-11-18T01:19:55;97059.47;;;15.65;39.88
44079;BME280;29744;49.078;12.878;2023-11-18T01:24:55;97053.59;;;15.63;39.75
44079;BME280;29744;49.078;12.878;2023-11-18T01:29:58;97066.94;;;15.60;39.82
44079;BME280;29744;49.078;12.878;2023-11-18T01:34:58;97074.56;;;15.58;40.00
44079;BME280;29744;49.078;12.878;2023-11-18T01:39:58;97077.91;;;15.55;39.91
44079;BME280;29744;49.078;12.878;2023-11-18T01:44:59;97082.03;;;15.52;40.11
44079;BME280;29744;49.078;12.878;2023-11-18T01:50:05;97082.34;;;15.51;39.82
44079;BME280;29744;49.078;12.878;2023-11-18T01:55:07;97083.75;;;15.48;39.99
44079;BME280;29744;49.078;12.878;2023-11-18T02:00:08;97078.66;;;15.46;40.17
44079;BME280;29744;49.078;12.878;2023-11-18T02:05:11;97092.50;;;15.45;39.95
44079;BME280;29744;49.078;12.878;2023-11-18T02:10:13;97095.50;;;15.43;39.97
44079;BME280;29744;49.078;12.878;2023-11-18T02:15:14;97095.81;;;15.42;40.32
44079;BME280;29744;49.078;12.878;2023-11-18T02:20:17;97100.75;;;15.40;40.24
44079;BME280;29744;49.078;12.878;2023-11-18T02:25:23;97106.47;;;15.38;40.05
44079;BME280;29744;49.078;12.878;2023-11-18T02:30:28;97105.97;;;15.36;39.87
44079;BME280;29744;49.078;12.878;2023-11-18T02:35:36;97108.19;;;15.34;40.22
44079;BME280;29744;49.078;12.878;2023-11-18T02:40:41;97100.41;;;15.33;40.36
44079;BME280;29744;49.078;12.878;2023-11-18T02:45:44;97100.72;;;15.31;40.45
44079;BME280;29744;49.078;12.878;2023-11-18T02:50:44;97096.41;;;15.30;40.17
44079;BME280;29744;49.078;12.878;2023-11-18T02:55:45;97097.53;;;15.29;40.30
44079;BME280;29744;49.078;12.878;2023-11-18T03:00:46;97098.63;;;15.28;40.49
44079;BME280;29744;49.078;12.878;2023-11-18T03:05:47;97108.97;;;15.26;40.18
44079;BME280;29744;49.078;12.878;2023-11-18T03:10:50;97111.19;;;15.24;40.05
44079;BME280;29744;49.078;12.878;2023-11-18T03:15:52;97116.59;;;15.24;40.60
44079;BME280;29744;49.078;12.878;2023-11-18T03:20:52;97114.50;;;15.21;40.57
44079;BME280;29744;49.078;12.878;2023-11-18T03:25:53;97118.31;;;15.20;40.13
44079;BME280;29744;49.078;12.878;2023-11-18T03:30:53;97125.94;;;15.18;40.45
44079;BME280;29744;49.078;12.878;2023-11-18T03:35:54;97139.75;;;15.17;40.42
44079;BME280;29744;49.078;12.878;2023-11-18T03:40:55;97140.88;;;15.16;40.23
44079;BME280;29744;49.078;12.878;2023-11-18T03:45:56;97139.28;;;15.14;40.40
44079;BME280;29744;49.078;12.878;2023-11-18T03:50:57;97142.28;;;15.13;40.65
44079;BME280;29744;49.078;12.878;2023-11-18T03:55:57;97147.19;;;15.11;40.48
44079;BME280;29744;49.078;12.878;2023-11-18T04:00:57;97148.00;;;15.11;40.40
44079;BME280;29744;49.078;12.878;2023-11-18T04:05:58;97146.72;;;15.09;40.35
44079;BME280;29744;49.078;12.878;2023-11-18T04:10:58;97161.31;;;15.08;40.43
44079;BME280;29744;49.078;12.878;2023-11-18T04:15:58;97155.13;;;15.07;40.60
44079;BME280;29744;49.078;12.878;2023-11-18T04:20:59;97157.34;;;15.05;40.63
44079;BME280;29744;49.078;12.878;2023-11-18T04:25:59;97161.13;;;15.04;40.46
44079;BME280;29744;49.078;12.878;2023-11-18T04:31:00;97172.25;;;15.03;40.61
44079;BME280;29744;49.078;12.878;2023-11-18T04:36:00;97171.47;;;15.02;40.45
44079;BME280;29744;49.078;12.878;2023-11-18T04:41:01;97176.03;;;15.02;40.87
44079;BME280;29744;49.078;12.878;2023-11-18T04:46:03;97174.16;;;15.02;40.37
44079;BME280;29744;49.078;12.878;2023-11-18T04:51:05;97180.53;;;15.06;40.29
44079;BME280;29744;49.078;12.878;2023-11-18T04:56:06;97181.03;;;15.08;40.34
44079;BME280;29744;49.078;12.878;2023-11-18T05:01:10;97184.41;;;15.14;40.79
44079;BME280;29744;49.078;12.878;2023-11-18T05:06:10;97173.16;;;15.21;40.71
44079;BME280;29744;49.078;12.878;2023-11-18T05:11:11;97178.59;;;15.29;40.72
44079;BME280;29744;49.078;12.878;2023-11-18T05:16:13;97173.25;;;15.38;40.71
44079;BME280;29744;49.078;12.878;2023-11-18T05:21:14;97172.16;;;15.48;40.41
44079;BME280;29744;49.078;12.878;2023-11-18T05:26:14;97167.59;;;15.57;40.70
44079;BME280;29744;49.078;12.878;2023-11-18T05:31:15;97174.31;;;15.68;40.54
44079;BME280;29744;49.078;12.878;2023-11-18T05:36:15;97178.31;;;15.79;40.44
44079;BME280;29744;49.078;12.878;2023-11-18T05:41:16;97179.19;;;15.88;40.20
44079;BME280;29744;49.078;12.878;2023-11-18T05:46:24;97181.59;;;15.98;40.47
44079;BME280;29744;49.078;12.878;2023-11-18T05:51:26;97186.53;;;16.05;39.81
44079;BME280;29744;49.078;12.878;2023-11-18T05:56:26;97184.78;;;16.09;40.15
44079;BME280;29744;49.078;12.878;2023-11-18T06:01:27;97184.66;;;16.14;39.72
44079;BME280;29744;49.078;12.878;2023-11-18T06:06:27;97186.41;;;16.19;40.19
44079;BME280;29744;49.078;12.878;2023-11-18T06:11:27;97196.91;;;16.20;39.78
44079;BME280;29744;49.078;12.878;2023-11-18T06:16:29;97191.66;;;16.24;39.57
44079;BME280;29744;49.078;12.878;2023-11-18T06:21:29;97191.66;;;16.24;39.87
44079;BME280;29744;49.078;12.878;2023-11-18T06:26:30;97195.50;;;16.23;39.77
44079;BME280;29744;49.078;12.878;2023-11-18T06:31:31;97213.00;;;16.25;39.75
44079;BME280;29744;49.078;12.878;2023-11-18T06:36:32;97202.19;;;16.25;39.72
44079;BME280;29744;49.078;12.878;2023-11-18T06:41:32;97212.53;;;16.23;39.71
44079;BME280;29744;49.078;12.878;2023-11-18T06:46:38;97215.53;;;16.22;39.72
44079;BME280;29744;49.078;12.878;2023-11-18T06:51:39;97215.06;;;16.20;39.61
44079;BME280;29744;49.078;12.878;2023-11-18T06:56:41;97208.38;;;16.17;39.96
44079;BME280;29744;49.078;12.878;2023-11-18T07:01:44;97214.09;;;16.16;39.38
44079;BME280;29744;49.078;12.878;2023-11-18T07:06:44;97212.03;;;16.13;39.61
44079;BME280;29744;49.078;12.878;2023-11-18T07:11:45;97223.97;;;16.12;39.53
44079;BME280;29744;49.078;12.878;2023-11-18T07:16:47;97224.28;;;16.10;39.72
44079;BME280;29744;49.078;12.878;2023-11-18T07:21:48;97230.31;;;16.07;39.33
44079;BME280;29744;49.078;12.878;2023-11-18T07:26:49;97233.34;;;16.05;39.81
44079;BME280;29744;49.078;12.878;2023-11-18T07:31:51;97237.94;;;16.05;39.83
44079;BME280;29744;49.078;12.878;2023-11-18T07:36:51;97256.41;;;16.03;39.45
44079;BME280;29744;49.078;12.878;2023-11-18T07:41:52;97253.22;;;16.01;39.41
44079;BME280;29744;49.078;12.878;2023-11-18T07:46:53;97267.84;;;16.00;39.56
44079;BME280;29744;49.078;12.878;2023-11-18T07:51:53;97275.16;;;15.99;39.62
44079;BME280;29744;49.078;12.878;2023-11-18T07:56:54;97280.09;;;15.97;39.63
44079;BME280;29744;49.078;12.878;2023-11-18T08:01:54;97276.91;;;15.95;39.72
44079;BME280;29744;49.078;12.878;2023-11-18T08:06:54;97279.91;;;15.94;39.37
44079;BME280;29744;49.078;12.878;2023-11-18T08:11:55;97285.16;;;15.90;39.81
44079;BME280;29744;49.078;12.878;2023-11-18T08:16:55;97276.88;;;15.87;39.93
44079;BME280;29744;49.078;12.878;2023-11-18T08:21:56;97274.78;;;15.84;40.07
44079;BME280;29744;49.078;12.878;2023-11-18T08:26:58;97287.81;;;15.82;39.71
44079;BME280;29744;49.078;12.878;2023-11-18T08:31:58;97287.03;;;15.81;39.78
44079;BME280;29744;49.078;12.878;2023-11-18T08:36:59;97285.44;;;15.80;40.23
44079;BME280;29744;49.078;12.878;2023-11-18T08:42:00;97293.53;;;15.80;39.57
44079;BME280;29744;49.078;12.878;2023-11-18T08:47:00;97290.84;;;15.80;39.93
44079;BME280;29744;49.078;12.878;2023-11-18T08:52:01;97286.22;;;15.81;39.62
44079;BME280;29744;49.078;12.878;2023-11-18T08:57:05;97289.72;;;15.81;40.10
44079;BME280;29744;49.078;12.878;2023-11-18T09:02:24;97282.72;;;15.80;39.50
44079;BME280;29744;49.078;12.878;2023-11-18T09:07:24;97278.13;;;15.81;40.23
44079;BME280;29744;49.078;12.878;2023-11-18T09:12:24;97281.63;;;15.81;39.63
44079;BME280;29744;49.078;12.878;2023-11-18T09:17:25;97282.41;;;15.82;39.76
44079;BME280;29744;49.078;12.878;2023-11-18T09:22:27;97294.03;;;15.82;39.92
44079;BME280;29744;49.078;12.878;2023-11-18T09:27:28;97291.63;;;15.81;39.97
44079;BME280;29744;49.078;12.878;2023-11-18T09:32:29;97291.63;;;15.81;39.53
44079;BME280;29744;49.078;12.878;2023-11-18T09:37:32;97294.63;;;15.79;39.79
44079;BME280;29744;49.078;12.878;2023-11-18T09:42:32;97296.53;;;15.78;40.18
44079;BME280;29744;49.078;12.878;2023-11-18T09:47:36;97301.13;;;15.78;39.66
44079;BME280;29744;49.078;12.878;2023-11-18T09:52:42;97303.78;;;15.69;36.90
44079;BME280;29744;49.078;12.878;2023-11-18T09:57:55;97307.41;;;15.34;34.24
44079;BME280;29744;49.078;12.878;2023-11-18T10:02:58;97307.63;;;14.88;32.97
44079;BME280;29744;49.078;12.878;2023-11-18T10:08:02;97305.22;;;14.36;32.08
44079;BME280;29744;49.078;12.878;2023-11-18T10:13:05;97305.91;;;14.01;33.20
44079;BME280;29744;49.078;12.878;2023-11-18T10:18:22;97296.19;;;13.86;33.47
44079;BME280;29744;49.078;12.878;2023-11-18T10:23:23;97296.50;;;13.84;33.91
44079;BME280;29744;49.078;12.878;2023-11-18T10:28:27;97299.09;;;13.90;34.36
44079;BME280;29744;49.078;12.878;2023-11-18T10:33:28;97292.50;;;13.96;34.50
44079;BME280;29744;49.078;12.878;2023-11-18T10:38:32;97295.63;;;14.03;35.03
44079;BME280;29744;49.078;12.878;2023-11-18T10:43:33;97285.53;;;14.08;34.82
44079;BME280;29744;49.078;12.878;2023-11-18T10:48:36;97280.81;;;14.14;35.36
44079;BME280;29744;49.078;12.878;2023-11-18T10:53:37;97281.81;;;14.18;35.54
44079;BME280;29744;49.078;12.878;2023-11-18T10:58:37;97276.34;;;14.23;35.56
44079;BME280;29744;49.078;12.878;2023-11-18T11:03:53;97275.75;;;14.26;35.78
44079;BME280;29744;49.078;12.878;2023-11-18T11:08:57;97262.97;;;14.32;35.95
44079;BME280;29744;49.078;12.878;2023-11-18T11:14:02;97265.56;;;14.37;36.26
44079;BME280;29744;49.078;12.878;2023-11-18T11:19:04;97268.44;;;14.40;36.18
44079;BME280;29744;49.078;12.878;2023-11-18T11:24:40;97260.53;;;14.44;36.50
44079;BME280;29744;49.078;12.878;2023-11-18T11:29:43;97252.16;;;14.45;36.58
44079;BME280;29744;49.078;12.878;2023-11-18T11:34:55;97246.44;;;14.47;36.31
44079;BME280;29744;49.078;12.878;2023-11-18T11:39:59;97229.94;;;14.48;36.64
44079;BME280;29744;49.078;12.878;2023-11-18T11:44:59;97242.03;;;14.51;36.65
44079;BME280;29744;49.078;12.878;2023-11-18T11:50:02;97240.63;;;14.54;37.03
44079;BME280;29744;49.078;12.878;2023-11-18T11:55:19;97244.94;;;14.55;36.61
44079;BME280;29744;49.078;12.878;2023-11-18T12:00:24;97242.22;;;14.55;36.71
44079;BME280;29744;49.078;12.878;2023-11-18T12:05:26;97231.94;;;14.57;37.15
44079;BME280;29744;49.078;12.878;2023-11-18T12:10:27;97229.22;;;14.57;37.11
44079;BME280;29744;49.078;12.878;2023-11-18T12:15:53;97225.72;;;14.56;37.06
44079;BME280;29744;49.078;12.878;2023-11-18T12:20:57;97225.72;;;14.56;37.16
44079;BME280;29744;49.078;12.878;2023-11-18T12:26:02;97223.53;;;14.58;37.14
44079;BME280;29744;49.078;12.878;2023-11-18T12:31:39;97211.13;;;14.57;37.44
44079;BME280;29744;49.078;12.878;2023-11-18T12:43:04;97185.53;;;14.55;37.43
44079;BME280;29744;49.078;12.878;2023-11-18T12:48:09;97181.44;;;14.57;37.62
44079;BME280;29744;49.078;12.878;2023-11-18T12:53:14;97170.63;;;14.57;37.41
44079;BME280;29744;49.078;12.878;2023-11-18T12:58:15;97158.25;;;14.56;37.69
44079;BME280;29744;49.078;12.878;2023-11-18T13:03:15;97145.53;;;14.57;38.09
44079;BME280;29744;49.078;12.878;2023-11-18T13:08:15;97136.66;;;14.56;38.18
44079;BME280;29744;49.078;12.878;2023-11-18T13:13:16;97123.16;;;14.56;38.14
44079;BME280;29744;49.078;12.878;2023-11-18T13:18:19;97116.97;;;14.56;38.21
44079;BME280;29744;49.078;12.878;2023-11-18T13:23:20;97133.16;;;14.56;38.17
44079;BME280;29744;49.078;12.878;2023-11-18T13:28:23;97134.75;;;14.57;38.19
44079;BME280;29744;49.078;12.878;2023-11-18T13:33:24;97145.06;;;14.55;38.32
44079;BME280;29744;49.078;12.878;2023-11-18T13:38:24;97143.94;;;14.56;38.37
44079;BME280;29744;49.078;12.878;2023-11-18T13:43:24;97148.56;;;14.55;38.37
44079;BME280;29744;49.078;12.878;2023-11-18T13:48:27;97130.75;;;14.54;38.26
44079;BME280;29744;49.078;12.878;2023-11-18T13:53:28;97133.47;;;14.54;38.34
44079;BME280;29744;49.078;12.878;2023-11-18T13:58:28;97135.38;;;14.54;38.05
44079;BME280;29744;49.078;12.878;2023-11-18T14:03:29;97132.66;;;14.54;38.58
44079;BME280;29744;49.078;12.878;2023-11-18T14:08:29;97128.88;;;14.55;38.37
44079;BME280;29744;49.078;12.878;2023-11-18T14:13:30;97124.56;;;14.54;38.20
44079;BME280;29744;49.078;12.878;2023-11-18T14:18:31;97131.06;;;14.53;38.34
44079;BME280;29744;49.078;12.878;2023-11-18T14:23:31;97120.56;;;14.51;38.67
44079;BME280;29744;49.078;12.878;2023-11-18T14:28:31;97116.28;;;14.50;38.41
44079;BME280;29744;49.078;12.878;2023-11-18T14:33:34;97117.38;;;14.49;38.29
44079;BME280;29744;49.078;12.878;2023-11-18T14:38:35;97103.09;;;14.48;38.69
44079;BME280;29744;49.078;12.878;2023-11-18T14:43:36;97103.09;;;14.48;38.36
44079;BME280;29744;49.078;12.878;2023-11-18T14:48:38;97093.41;;;14.47;38.72
44079;BME280;29744;49.078;12.878;2023-11-18T14:53:38;97084.50;;;14.47;38.99
44079;BME280;29744;49.078;12.878;2023-11-18T14:58:38;97099.13;;;14.46;38.97
44079;BME280;29744;49.078;12.878;2023-11-18T15:03:39;97097.53;;;14.45;38.83
44079;BME280;29744;49.078;12.878;2023-11-18T15:08:39;97103.72;;;14.45;39.00
44079;BME280;29744;49.078;12.878;2023-11-18T15:13:43;97085.94;;;14.44;38.83
44079;BME280;29744;49.078;12.878;2023-11-18T15:18:44;97079.44;;;14.45;39.01
44079;BME280;29744;49.078;12.878;2023-11-18T15:23:47;97073.22;;;14.45;38.84
44079;BME280;29744;49.078;12.878;2023-11-18T15:28:48;97061.63;;;14.44;39.16
44079;BME280;29744;49.078;12.878;2023-11-18T15:33:49;97052.75;;;14.44;39.12
44079;BME280;29744;49.078;12.878;2023-11-18T15:38:50;97054.97;;;14.42;39.01
44079;BME280;29744;49.078;12.878;2023-11-18T15:43:51;97063.84;;;14.42;39.07
44079;BME280;29744;49.078;12.878;2023-11-18T15:48:52;97057.97;;;14.40;38.93
44079;BME280;29744;49.078;12.878;2023-11-18T15:53:52;97054.47;;;14.40;39.16
44079;BME280;29744;49.078;12.878;2023-11-18T15:58:53;97036.69;;;14.39;38.85
44079;BME280;29744;49.078;12.878;2023-11-18T16:03:53;97018.91;;;14.38;39.24
44079;BME280;29744;49.078;12.878;2023-11-18T16:08:53;97023.50;;;14.37;38.80
44079;BME280;29744;49.078;12.878;2023-11-18T16:13:54;97033.50;;;14.37;39.19
44079;BME280;29744;49.078;12.878;2023-11-18T16:18:55;97026.69;;;14.39;38.74
44079;BME280;29744;49.078;12.878;2023-11-18T16:23:55;97016.06;;;14.43;39.09
44079;BME280;29744;49.078;12.878;2023-11-18T16:28:56;97010.53;;;14.48;38.86
44079;BME280;29744;49.078;12.878;2023-11-18T16:33:57;97008.50;;;14.54;39.22
44079;BME280;29744;49.078;12.878;2023-11-18T16:39:00;97007.75;;;14.62;39.38
44079;BME280;29744;49.078;12.878;2023-11-18T16:44:01;97019.41;;;14.71;39.26
44079;BME280;29744;49.078;12.878;2023-11-18T16:49:01;97024.03;;;14.79;39.34
44079;BME280;29744;49.078;12.878;2023-11-18T16:54:01;97029.16;;;14.89;39.63
44079;BME280;29744;49.078;12.878;2023-11-18T16:59:02;97039.91;;;15.03;39.52
44079;BME280;29744;49.078;12.878;2023-11-18T17:04:03;97032.00;;;15.15;39.36
44079;BME280;29744;49.078;12.878;2023-11-18T17:09:03;97027.28;;;15.29;39.12
44079;BME280;29744;49.078;12.878;2023-11-18T17:14:05;97031.75;;;15.42;38.94
44079;BME280;29744;49.078;12.878;2023-11-18T17:19:07;97035.44;;;15.55;39.06
44079;BME280;29744;49.078;12.878;2023-11-18T17:24:07;97027.97;;;15.69;38.88
44079;BME280;29744;49.078;12.878;2023-11-18T17:29:08;97035.66;;;15.85;39.01
44079;BME280;29744;49.078;12.878;2023-11-18T17:34:08;97037.09;;;15.99;38.70
44079;BME280;29744;49.078;12.878;2023-11-18T17:39:09;97034.56;;;16.12;38.70
44079;BME280;29744;49.078;12.878;2023-11-18T17:44:11;97024.50;;;16.21;37.80
44079;BME280;29744;49.078;12.878;2023-11-18T17:49:11;97019.41;;;16.28;37.62
44079;BME280;29744;49.078;12.878;2023-11-18T17:54:13;97015.25;;;16.39;37.81
44079;BME280;29744;49.078;12.878;2023-11-18T17:59:13;97008.72;;;16.49;37.71
44079;BME280;29744;49.078;12.878;2023-11-18T18:04:13;97005.38;;;16.60;37.64
44079;BME280;29744;49.078;12.878;2023-11-18T18:09:14;96986.56;;;16.72;37.66
44079;BME280;29744;49.078;12.878;2023-11-18T18:14:16;96970.41;;;16.85;37.50
44079;BME280;29744;49.078;12.878;2023-11-18T18:19:17;96975.00;;;16.93;37.32
44079;BME280;29744;49.078;12.878;2023-11-18T18:24:18;96972.38;;;17.05;37.15
44079;BME280;29744;49.078;12.878;2023-11-18T18:29:18;96961.50;;;17.14;37.73
44079;BME280;29744;49.078;12.878;2023-11-18T18:34:19;96944.38;;;17.22;37.56
44079;BME280;29744;49.078;12.878;2023-11-18T18:39:19;96933.53;;;17.30;37.10
44079;BME280;29744;49.078;12.878;2023-11-18T18:44:20;96931.88;;;17.38;37.16
44079;BME280;29744;49.078;12.878;2023-11-18T18:49:21;96931.00;;;17.46;37.13
44079;BME280;29744;49.078;12.878;2023-11-18T18:54:21;96924.28;;;17.52;37.12
44079;BME280;29744;49.078;12.878;2023-11-18T18:59:21;96941.94;;;17.58;36.83
44079;BME280;29744;49.078;12.878;2023-11-18T19:04:22;96941.72;;;17.63;36.78
44079;BME280;29744;49.078;12.878;2023-11-18T19:09:23;96929.41;;;17.66;37.27
44079;BME280;29744;49.078;12.878;2023-11-18T19:14:23;96915.84;;;17.66;37.00
44079;BME280;29744;49.078;12.878;2023-11-18T19:19:24;96924.78;;;17.66;36.93
44079;BME280;29744;49.078;12.878;2023-11-18T19:24:24;96929.09;;;17.67;36.72
44079;BME280;29744;49.078;12.878;2023-11-18T19:29:24;96929.41;;;17.66;37.01
44079;BME280;29744;49.078;12.878;2023-11-18T19:34:25;96917.78;;;17.65;36.71
44079;BME280;29744;49.078;12.878;2023-11-18T19:39:25;96913.81;;;17.63;36.98
44079;BME280;29744;49.078;12.878;2023-11-18T19:44:26;96897.88;;;17.61;36.47
44079;BME280;29744;49.078;12.878;2023-11-18T19:49:26;96864.06;;;17.59;37.14
44079;BME280;29744;49.078;12.878;2023-11-18T19:54:31;96862.03;;;17.56;36.73
44079;BME280;29744;49.078;12.878;2023-11-18T19:59:31;96854.56;;;17.53;37.11
44079;BME280;29744;49.078;12.878;2023-11-18T20:04:32;96841.66;;;17.50;36.81
44079;BME280;29744;49.078;12.878;2023-11-18T20:09:33;96847.75;;;17.47;36.50
44079;BME280;29744;49.078;12.878;2023-11-18T20:14:33;96848.75;;;17.42;36.61
44079;BME280;29744;49.078;12.878;2023-11-18T20:19:34;96845.44;;;17.36;36.57
44079;BME280;29744;49.078;12.878;2023-11-18T20:24:36;96827.47;;;17.32;36.80
44079;BME280;29744;49.078;12.878;2023-11-18T20:29:37;96825.41;;;17.29;36.81
44079;BME280;29744;49.078;12.878;2023-11-18T20:34:37;96826.38;;;17.24;37.21
44079;BME280;29744;49.078;12.878;2023-11-18T20:39:37;96816.53;;;17.20;36.99
44079;BME280;29744;49.078;12.878;2023-11-18T20:44:38;96814.81;;;17.15;37.02
44079;BME280;29744;49.078;12.878;2023-11-18T20:49:38;96802.59;;;17.09;37.23
44079;BME280;29744;49.078;12.878;2023-11-18T20:54:40;96810.13;;;17.03;37.19
44079;BME280;29744;49.078;12.878;2023-11-18T20:59:40;96810.34;;;16.98;37.44
44079;BME280;29744;49.078;12.878;2023-11-18T21:04:40;96800.03;;;16.92;37.22
44079;BME280;29744;49.078;12.878;2023-11-18T21:09:43;96773.94;;;16.87;37.22
44079;BME280;29744;49.078;12.878;2023-11-18T21:14:46;96761.38;;;16.83;37.06
44079;BME280;29744;49.078;12.878;2023-11-18T21:19:46;96745.66;;;16.76;37.35
44079;BME280;29744;49.078;12.878;2023-11-18T21:24:46;96724.97;;;16.71;37.33
44079;BME280;29744;49.078;12.878;2023-11-18T21:29:47;96714.00;;;16.68;37.39
44079;BME280;29744;49.078;12.878;2023-11-18T21:34:47;96704.97;;;16.64;37.67
44079;BME280;29744;49.078;12.878;2023-11-18T21:39:47;96699.41;;;16.60;37.67
44079;BME280;29744;49.078;12.878;2023-11-18T21:44:48;96676.03;;;16.56;37.56
44079;BME280;29744;49.078;12.878;2023-11-18T21:49:48;96671.25;;;16.53;37.79
44079;BME280;29744;49.078;12.878;2023-11-18T21:54:48;96668.75;;;16.48;37.64
44079;BME280;29744;49.078;12.878;2023-11-18T21:59:49;96675.63;;;16.45;37.67
44079;BME280;29744;49.078;12.878;2023-11-18T22:04:50;96676.28;;;16.42;37.75
44079;BME280;29744;49.078;12.878;2023-11-18T22:09:51;96675.78;;;16.40;37.58
44079;BME280;29744;49.078;12.878;2023-11-18T22:14:52;96665.63;;;16.37;37.70
44079;BME280;29744;49.078;12.878;2023-11-18T22:19:54;96669.78;;;16.34;37.85
44079;BME280;29744;49.078;12.878;2023-11-18T22:24:54;96649.91;;;16.30;37.55
44079;BME280;29744;49.078;12.878;2023-11-18T22:29:55;96645.47;;;16.26;37.59
44079;BME280;29744;49.078;12.878;2023-11-18T22:34:55;96638.03;;;16.23;37.76
44079;BME280;29744;49.078;12.878;2023-11-18T22:39:57;96625.16;;;16.20;37.77
44079;BME280;29744;49.078;12.878;2023-11-18T22:44:57;96613.41;;;16.16;38.03
44079;BME280;29744;49.078;12.878;2023-11-18T22:49:57;96602.44;;;16.12;38.13
44079;BME280;29744;49.078;12.878;2023-11-18T22:54:59;96617.41;;;16.09;38.33
44079;BME280;29744;49.078;12.878;2023-11-18T23:00:03;96608.38;;;16.05;37.80
44079;BME280;29744;49.078;12.878;2023-11-18T23:05:04;96602.50;;;16.03;38.06
44079;BME280;29744;49.078;12.878;2023-11-18T23:10:06;96598.53;;;16.01;38.04
44079;BME280;29744;49.078;12.878;2023-11-18T23:15:07;96578.69;;;15.97;38.25
44079;BME280;29744;49.078;12.878;2023-11-18T23:20:08;96556.13;;;15.93;38.28
44079;BME280;29744;49.078;12.878;2023-11-18T23:25:12;96550.56;;;15.89;38.05
44079;BME280;29744;49.078;12.878;2023-11-18T23:30:13;96531.97;;;15.88;38.41
44079;BME280;29744;49.078;12.878;2023-11-18T23:35:13;96537.25;;;15.84;38.43
44079;BME280;29744;49.078;12.878;2023-11-18T23:40:13;96548.41;;;15.83;38.26
44079;BME280;29744;49.078;12.878;2023-11-18T23:45:14;96553.66;;;15.79;38.33
44079;BME280;29744;49.078;12.878;2023-11-18T23:50:14;96565.13;;;15.76;38.41
44079;BME280;29744;49.078;12.878;2023-11-18T23:55:15;96557.66;;;15.73;38.59
